createdAt,value
2017-04-27T00:01:39.292Z,12.10
2017-04-27T00:04:06.808Z,12.10
2017-04-27T00:06:34.230Z,12.00
2017-04-27T00:09:01.664Z,12.00
2017-04-27T00:11:29.099Z,11.90
2017-04-27T00:13:56.491Z,11.80
2017-04-27T00:16:23.943Z,11.80
2017-04-27T00:18:51.398Z,11.80
2017-04-27T00:21:18.839Z,11.70
2017-04-27T00:23:46.276Z,11.70
2017-04-27T00:26:13.738Z,11.60
2017-04-27T00:28:41.799Z,11.50
2017-04-27T00:31:09.195Z,11.50
2017-04-27T00:33:36.639Z,11.50
2017-04-27T00:36:04.112Z,11.40
2017-04-27T00:38:31.534Z,11.40
2017-04-27T00:40:58.999Z,11.30
2017-04-27T00:43:26.422Z,11.30
2017-04-27T00:45:53.851Z,11.30
2017-04-27T00:48:21.311Z,11.30
2017-04-27T00:50:48.719Z,11.30
2017-04-27T00:53:16.136Z,11.20
2017-04-27T00:55:44.323Z,11.20
2017-04-27T00:58:12.426Z,11.10
2017-04-27T01:00:39.855Z,11.00
2017-04-27T01:03:07.303Z,10.70
2017-04-27T01:05:34.738Z,10.70
2017-04-27T01:08:02.173Z,10.70
2017-04-27T01:10:29.681Z,10.60
2017-04-27T01:12:57.844Z,10.60
2017-04-27T01:15:25.275Z,10.60
2017-04-27T01:17:52.751Z,10.50
2017-04-27T01:20:20.203Z,10.40
2017-04-27T01:22:47.627Z,10.40
2017-04-27T01:25:15.115Z,10.40
2017-04-27T01:27:42.952Z,10.30
2017-04-27T01:30:10.375Z,10.20
2017-04-27T01:32:37.807Z,10.20
2017-04-27T01:35:05.219Z,10.10
2017-04-27T01:37:32.683Z,10.10
2017-04-27T01:40:00.135Z,10.10
2017-04-27T01:42:27.551Z,10.00
2017-04-27T01:44:54.968Z,10.00
2017-04-27T01:47:23.174Z,9.90
2017-04-27T01:49:50.596Z,9.80
2017-04-27T01:52:18.011Z,9.80
2017-04-27T01:54:45.471Z,9.80
2017-04-27T01:57:12.899Z,9.70
2017-04-27T01:59:40.331Z,9.70
2017-04-27T02:02:08.546Z,9.70
2017-04-27T02:04:35.979Z,9.70
2017-04-27T02:07:03.434Z,9.70
2017-04-27T02:09:31.171Z,9.70
2017-04-27T02:11:58.578Z,9.60
2017-04-27T02:14:26.003Z,9.50
2017-04-27T02:16:54.175Z,9.40
2017-04-27T02:19:21.607Z,9.40
2017-04-27T02:21:49.051Z,9.30
2017-04-27T02:24:16.491Z,9.30
2017-04-27T02:26:43.922Z,9.30
2017-04-27T02:29:11.804Z,9.30
2017-04-27T02:31:39.243Z,9.20
2017-04-27T02:34:06.667Z,9.20
2017-04-27T02:36:34.083Z,9.10
2017-04-27T02:39:02.317Z,9.10
2017-04-27T02:41:29.771Z,9.20
2017-04-27T02:43:57.184Z,9.10
2017-04-27T02:46:24.639Z,9.00
2017-04-27T02:48:52.077Z,9.10
2017-04-27T02:51:19.519Z,9.10
2017-04-27T02:53:46.984Z,9.10
2017-04-27T02:56:15.163Z,9.10
2017-04-27T02:58:43.407Z,9.10
2017-04-27T03:01:12.561Z,9.10
2017-04-27T03:03:39.966Z,9.10
2017-04-27T03:06:07.408Z,9.10
2017-04-27T03:08:34.867Z,9.00
2017-04-27T03:11:02.303Z,9.00
2017-04-27T03:13:29.747Z,9.10
2017-04-27T03:15:57.204Z,9.00
2017-04-27T03:18:24.618Z,9.00
2017-04-27T03:20:52.048Z,9.00
2017-04-27T03:23:19.483Z,8.90
2017-04-27T03:25:46.899Z,8.90
2017-04-27T03:28:15.067Z,8.90
2017-04-27T03:30:43.439Z,8.90
2017-04-27T03:33:10.872Z,8.90
2017-04-27T03:35:38.303Z,8.80
2017-04-27T03:38:05.755Z,8.80
2017-04-27T03:40:33.215Z,8.80
2017-04-27T03:43:00.651Z,8.70
2017-04-27T03:45:28.114Z,8.70
2017-04-27T03:47:55.535Z,8.70
2017-04-27T03:50:22.970Z,8.70
2017-04-27T03:52:50.410Z,8.80
2017-04-27T03:55:17.835Z,8.70
2017-04-27T03:57:45.266Z,8.60
2017-04-27T04:00:13.351Z,8.60
2017-04-27T04:02:40.772Z,8.50
2017-04-27T04:05:08.194Z,8.50
2017-04-27T04:07:36.364Z,8.50
2017-04-27T04:10:03.803Z,8.50
2017-04-27T04:12:31.216Z,8.40
2017-04-27T04:14:58.699Z,8.40
2017-04-27T04:17:26.131Z,8.30
2017-04-27T04:19:53.540Z,8.20
2017-04-27T04:22:20.991Z,8.20
2017-04-27T04:24:49.147Z,8.10
2017-04-27T04:27:17.357Z,8.00
2017-04-27T04:29:44.809Z,8.10
2017-04-27T04:32:12.975Z,8.10
2017-04-27T04:34:40.411Z,8.00
2017-04-27T04:37:07.871Z,8.00
2017-04-27T04:39:35.291Z,8.00
2017-04-27T04:42:02.734Z,7.90
2017-04-27T04:44:30.174Z,7.90
2017-04-27T04:46:57.615Z,7.80
2017-04-27T04:49:25.027Z,7.70
2017-04-27T04:51:52.479Z,7.70
2017-04-27T04:54:19.906Z,7.80
2017-04-27T04:56:47.328Z,7.70
2017-04-27T04:59:14.783Z,7.60
2017-04-27T05:01:43.235Z,7.70
2017-04-27T05:04:10.663Z,7.70
2017-04-27T05:06:38.140Z,7.60
2017-04-27T05:09:05.596Z,7.50
2017-04-27T05:11:33.026Z,7.50
2017-04-27T05:14:00.502Z,7.60
2017-04-27T05:16:27.910Z,7.60
2017-04-27T05:18:55.355Z,7.70
2017-04-27T05:21:22.795Z,7.90
2017-04-27T05:23:50.211Z,8.00
2017-04-27T05:26:17.611Z,8.10
2017-04-27T05:28:45.084Z,8.20
2017-04-27T05:31:13.424Z,8.30
2017-04-27T05:33:41.578Z,8.40
2017-04-27T05:36:09.095Z,8.50
2017-04-27T05:38:36.555Z,8.60
2017-04-27T05:41:04.039Z,8.80
2017-04-27T05:43:31.562Z,8.90
2017-04-27T05:45:59.044Z,9.10
2017-04-27T05:48:26.463Z,9.30
2017-04-27T05:50:53.903Z,9.50
2017-04-27T05:53:21.344Z,9.60
2017-04-27T05:55:48.751Z,9.80
2017-04-27T05:58:16.220Z,9.90
2017-04-27T06:00:43.668Z,10.00
2017-04-27T06:03:11.111Z,10.10
2017-04-27T06:05:38.628Z,10.20
2017-04-27T06:08:06.167Z,10.10
2017-04-27T06:10:34.487Z,10.30
2017-04-27T06:13:02.023Z,10.50
2017-04-27T06:15:29.595Z,10.70
2017-04-27T06:17:57.104Z,10.80
2017-04-27T06:20:24.676Z,11.00
2017-04-27T06:22:52.196Z,11.00
2017-04-27T06:25:19.731Z,11.20
2017-04-27T06:27:47.290Z,11.10
2017-04-27T06:30:14.833Z,11.30
2017-04-27T06:32:42.658Z,10.70
2017-04-27T06:35:10.247Z,11.00
2017-04-27T06:37:37.792Z,11.00
2017-04-27T06:40:05.339Z,11.30
2017-04-27T06:42:32.875Z,10.80
2017-04-27T06:45:00.419Z,10.90
2017-04-27T06:47:28.665Z,11.10
2017-04-27T06:49:56.225Z,11.50
2017-04-27T06:52:24.513Z,11.90
2017-04-27T06:54:52.041Z,12.00
2017-04-27T06:57:20.364Z,12.20
2017-04-27T06:59:47.864Z,12.30
2017-04-27T07:02:15.356Z,12.40
2017-04-27T07:04:42.832Z,12.20
2017-04-27T07:07:11.016Z,12.50
2017-04-27T07:09:38.479Z,12.50
2017-04-27T07:12:05.951Z,12.60
2017-04-27T07:14:33.379Z,12.70
2017-04-27T07:17:00.912Z,12.90
2017-04-27T07:19:28.384Z,12.90
2017-04-27T07:21:55.807Z,13.00
2017-04-27T07:24:23.218Z,13.30
2017-04-27T07:28:10.372Z,11.00
2017-04-27T07:30:38.555Z,10.10
2017-04-27T07:33:05.983Z,10.10
2017-04-27T07:35:34.201Z,10.20
2017-04-27T07:38:01.635Z,10.40
2017-04-27T07:40:29.071Z,10.30
2017-04-27T07:42:56.541Z,10.80
2017-04-27T07:45:23.987Z,11.10
2017-04-27T07:47:51.414Z,11.70
2017-04-27T07:50:18.859Z,12.80
2017-04-27T07:52:46.302Z,13.70
2017-04-27T07:55:13.859Z,14.80
2017-04-27T07:57:42.480Z,15.50
2017-04-27T08:00:10.016Z,17.10
2017-04-27T08:02:37.637Z,16.70
2017-04-27T08:05:05.237Z,16.80
2017-04-27T08:07:32.856Z,17.00
2017-04-27T08:10:00.503Z,17.00
2017-04-27T08:12:28.024Z,16.70
2017-04-27T08:14:55.548Z,16.50
2017-04-27T08:17:23.071Z,16.50
2017-04-27T08:19:51.372Z,16.00
2017-04-27T08:22:18.935Z,14.60
2017-04-27T08:24:46.533Z,14.00
2017-04-27T08:27:14.184Z,13.20
2017-04-27T08:29:42.758Z,13.30
2017-04-27T08:32:10.276Z,13.20
2017-04-27T08:34:38.596Z,12.90
2017-04-27T08:37:06.157Z,12.90
2017-04-27T08:39:33.701Z,13.00
2017-04-27T08:42:01.280Z,13.10
2017-04-27T08:44:28.860Z,12.90
2017-04-27T08:46:56.419Z,12.90
2017-04-27T08:49:23.994Z,12.40
2017-04-27T08:51:51.592Z,12.30
2017-04-27T08:54:19.157Z,12.70
2017-04-27T08:56:47.068Z,12.60
2017-04-27T08:59:14.704Z,12.70
2017-04-27T09:01:42.612Z,12.80
2017-04-27T09:04:10.246Z,12.80
2017-04-27T09:06:37.856Z,13.10
2017-04-27T09:09:05.487Z,13.30
2017-04-27T09:11:33.084Z,13.00
2017-04-27T09:14:00.753Z,12.80
2017-04-27T09:16:29.043Z,12.60
2017-04-27T09:18:56.558Z,12.80
2017-04-27T09:21:24.878Z,12.60
2017-04-27T09:23:52.504Z,12.10
2017-04-27T09:26:20.176Z,11.80
2017-04-27T09:28:47.778Z,11.80
2017-04-27T09:31:15.397Z,11.50
2017-04-27T09:33:42.999Z,11.20
2017-04-27T09:36:10.623Z,10.90
2017-04-27T09:38:38.257Z,10.80
2017-04-27T09:41:05.824Z,10.70
2017-04-27T09:43:33.488Z,10.60
2017-04-27T09:46:01.144Z,10.60
2017-04-27T09:48:28.755Z,10.50
2017-04-27T09:50:56.364Z,10.40
2017-04-27T09:53:24.678Z,10.30
2017-04-27T09:55:52.264Z,10.20
2017-04-27T09:58:20.684Z,10.20
2017-04-27T10:00:48.273Z,10.30
2017-04-27T10:03:16.636Z,10.30
2017-04-27T10:05:45.028Z,10.20
2017-04-27T10:08:12.883Z,10.30
2017-04-27T10:10:40.490Z,10.40
2017-04-27T10:13:08.097Z,10.50
2017-04-27T10:15:35.724Z,10.50
2017-04-27T10:18:03.309Z,10.50
2017-04-27T10:20:30.980Z,10.50
2017-04-27T10:22:59.243Z,10.50
2017-04-27T10:25:27.519Z,10.60
2017-04-27T10:27:55.104Z,10.70
2017-04-27T10:30:22.663Z,10.80
2017-04-27T10:32:50.196Z,10.40
2017-04-27T10:35:17.788Z,10.60
2017-04-27T10:37:45.376Z,10.80
2017-04-27T10:40:12.996Z,10.80
2017-04-27T10:42:40.808Z,11.00
2017-04-27T10:45:09.276Z,11.40
2017-04-27T10:47:37.696Z,11.70
2017-04-27T10:50:05.344Z,11.80
2017-04-27T10:52:33.161Z,11.60
2017-04-27T10:55:00.752Z,11.70
2017-04-27T10:57:28.324Z,13.00
2017-04-27T10:59:55.912Z,14.80
2017-04-27T11:02:23.528Z,15.00
2017-04-27T11:04:51.428Z,14.50
2017-04-27T11:07:19.160Z,14.50
2017-04-27T11:09:47.139Z,15.90
2017-04-27T11:12:15.554Z,17.10
2017-04-27T11:14:43.092Z,17.30
2017-04-27T11:17:10.635Z,17.90
2017-04-27T11:19:38.220Z,15.40
2017-04-27T11:22:05.933Z,13.80
2017-04-27T11:24:33.564Z,13.50
2017-04-27T11:27:01.212Z,12.90
2017-04-27T11:29:29.020Z,12.50
2017-04-27T11:31:56.561Z,12.30
2017-04-27T11:34:24.145Z,12.30
2017-04-27T11:36:52.449Z,12.00
2017-04-27T11:39:20.101Z,12.00
2017-04-27T11:41:47.675Z,11.90
2017-04-27T11:44:16.061Z,12.00
2017-04-27T11:46:43.685Z,12.20
2017-04-27T11:49:13.072Z,12.70
2017-04-27T11:51:42.112Z,12.50
2017-04-27T11:54:09.696Z,12.30
2017-04-27T11:56:37.293Z,12.30
2017-04-27T11:59:04.928Z,12.30
2017-04-27T12:01:33.196Z,12.60
2017-04-27T12:04:00.803Z,12.70
2017-04-27T12:06:28.429Z,12.90
2017-04-27T12:08:55.997Z,13.10
2017-04-27T12:11:23.580Z,13.70
2017-04-27T12:13:51.127Z,15.00
2017-04-27T12:16:18.716Z,14.00
2017-04-27T12:18:46.320Z,13.60
2017-04-27T12:21:13.924Z,13.20
2017-04-27T12:23:42.080Z,13.30
2017-04-27T12:26:09.706Z,13.20
2017-04-27T12:28:38.061Z,12.90
2017-04-27T12:31:06.417Z,12.80
2017-04-27T12:33:34.804Z,12.60
2017-04-27T12:36:03.167Z,12.40
2017-04-27T12:38:30.804Z,12.30
2017-04-27T12:40:59.147Z,12.20
2017-04-27T12:43:26.718Z,12.10
2017-04-27T12:45:54.289Z,12.10
2017-04-27T12:48:21.944Z,12.10
2017-04-27T12:50:49.567Z,12.20
2017-04-27T12:53:17.103Z,12.20
2017-04-27T12:55:44.764Z,12.00
2017-04-27T12:58:12.731Z,11.70
2017-04-27T13:00:40.327Z,11.90
2017-04-27T13:03:07.896Z,11.90
2017-04-27T13:05:35.480Z,11.70
2017-04-27T13:08:03.088Z,12.10
2017-04-27T13:10:30.724Z,12.70
2017-04-27T13:12:58.314Z,13.70
2017-04-27T13:15:25.932Z,13.10
2017-04-27T13:17:53.488Z,12.90
2017-04-27T13:20:21.152Z,13.10
2017-04-27T13:22:48.735Z,12.90
2017-04-27T13:25:17.156Z,12.70
2017-04-27T13:27:44.752Z,12.70
2017-04-27T13:30:12.715Z,12.50
2017-04-27T13:32:40.288Z,12.70
2017-04-27T13:35:07.888Z,12.80
2017-04-27T13:37:35.521Z,12.60
2017-04-27T13:40:03.895Z,12.60
2017-04-27T13:42:31.560Z,12.50
2017-04-27T13:44:59.171Z,12.40
2017-04-27T13:47:27.498Z,12.40
2017-04-27T13:49:55.749Z,12.30
2017-04-27T13:52:23.368Z,12.10
2017-04-27T13:54:51.056Z,12.10
2017-04-27T13:57:18.651Z,12.20
2017-04-27T13:59:46.284Z,12.30
2017-04-27T14:02:13.852Z,12.50
2017-04-27T14:04:41.732Z,13.10
2017-04-27T14:07:09.340Z,13.40
2017-04-27T14:09:36.968Z,14.40
2017-04-27T14:12:04.606Z,15.10
2017-04-27T14:14:32.992Z,14.60
2017-04-27T14:17:00.623Z,15.20
2017-04-27T14:19:28.209Z,15.60
2017-04-27T14:21:55.800Z,15.80
2017-04-27T14:24:23.451Z,16.00
2017-04-27T14:26:51.067Z,15.70
2017-04-27T14:29:18.681Z,14.90
2017-04-27T14:31:46.288Z,13.90
2017-04-27T14:34:14.575Z,13.50
2017-04-27T14:36:42.214Z,13.30
2017-04-27T14:39:09.827Z,13.10
2017-04-27T14:41:38.136Z,13.00
2017-04-27T14:44:05.733Z,13.00
2017-04-27T14:46:33.335Z,12.90
2017-04-27T14:49:00.931Z,12.70
2017-04-27T14:51:29.228Z,12.70
2017-04-27T14:53:57.252Z,12.50
2017-04-27T14:56:24.839Z,12.50
2017-04-27T14:58:52.671Z,12.50
2017-04-27T15:01:20.256Z,12.50
2017-04-27T15:03:47.825Z,12.50
2017-04-27T15:06:16.208Z,12.40
2017-04-27T15:08:43.868Z,12.50
2017-04-27T15:11:12.081Z,12.80
2017-04-27T15:13:40.384Z,13.10
2017-04-27T15:16:08.005Z,13.40
2017-04-27T15:18:36.291Z,13.60
2017-04-27T15:21:03.829Z,13.70
2017-04-27T15:23:31.461Z,13.90
2017-04-27T15:25:59.088Z,13.60
2017-04-27T15:28:26.689Z,13.10
2017-04-27T15:30:54.312Z,12.80
2017-04-27T15:33:21.900Z,12.60
2017-04-27T15:35:49.480Z,12.40
2017-04-27T15:38:17.079Z,12.20
2017-04-27T15:40:44.681Z,12.10
2017-04-27T15:43:12.708Z,12.00
2017-04-27T15:45:40.376Z,11.80
2017-04-27T15:48:08.024Z,11.70
2017-04-27T15:50:35.670Z,11.70
2017-04-27T15:53:03.334Z,11.60
2017-04-27T15:55:30.935Z,11.50
2017-04-27T15:57:59.296Z,11.40
2017-04-27T16:00:26.911Z,11.40
2017-04-27T16:02:54.460Z,11.30
2017-04-27T16:05:22.044Z,11.30
2017-04-27T16:07:49.690Z,11.30
2017-04-27T16:10:17.369Z,11.20
2017-04-27T16:12:44.984Z,11.10
2017-04-27T16:15:13.525Z,11.10
2017-04-27T16:17:42.624Z,11.00
2017-04-27T16:20:10.221Z,11.00
2017-04-27T16:22:37.872Z,11.00
2017-04-27T16:25:05.560Z,11.00
2017-04-27T16:27:33.144Z,11.00
2017-04-27T16:30:00.812Z,11.00
2017-04-27T16:32:28.436Z,10.90
2017-04-27T16:34:56.088Z,10.80
2017-04-27T16:37:30.363Z,10.60
2017-04-27T16:39:58.001Z,10.50
2017-04-27T16:42:25.718Z,10.50
2017-04-27T16:44:54.036Z,10.50
2017-04-27T16:47:21.663Z,10.50
2017-04-27T16:49:49.277Z,10.40
2017-04-27T16:52:16.832Z,10.30
2017-04-27T16:54:44.431Z,10.40
2017-04-27T16:57:12.692Z,10.40
2017-04-27T16:59:40.325Z,10.50
2017-04-27T17:02:08.024Z,10.50
2017-04-27T17:04:36.340Z,10.50
2017-04-27T17:07:03.956Z,10.60
2017-04-27T17:09:31.715Z,10.60
2017-04-27T17:11:59.372Z,10.50
2017-04-27T17:14:26.961Z,10.50
2017-04-27T17:16:55.316Z,10.50
2017-04-27T17:19:23.681Z,10.50
2017-04-27T17:21:51.248Z,10.50
2017-04-27T17:24:18.842Z,10.50
2017-04-27T17:26:46.441Z,10.60
2017-04-27T17:29:14.060Z,10.50
2017-04-27T17:31:41.710Z,10.50
2017-04-27T17:34:10.085Z,10.50
2017-04-27T17:36:37.692Z,10.50
2017-04-27T17:39:06.065Z,10.50
2017-04-27T17:41:33.698Z,10.50
2017-04-27T17:44:01.188Z,10.50
2017-04-27T17:46:28.769Z,10.40
2017-04-27T17:48:56.364Z,10.30
2017-04-27T17:51:25.873Z,10.30
2017-04-27T17:53:53.492Z,10.20
2017-04-27T17:56:21.056Z,10.20
2017-04-27T17:58:48.616Z,10.20
2017-04-27T18:01:16.244Z,10.10
2017-04-27T18:03:43.896Z,10.00
2017-04-27T18:06:12.240Z,10.00
2017-04-27T18:08:39.869Z,9.90
2017-04-27T18:11:08.475Z,9.80
2017-04-27T18:13:36.146Z,9.70
2017-04-27T18:16:03.731Z,9.70
2017-04-27T18:18:32.100Z,9.50
2017-04-27T18:21:00.399Z,9.40
2017-04-27T18:23:27.992Z,9.30
2017-04-27T18:25:56.480Z,9.30
2017-04-27T18:28:24.168Z,9.10
2017-04-27T18:30:52.695Z,9.00
2017-04-27T18:33:20.425Z,9.00
2017-04-27T18:35:47.857Z,9.00
2017-04-27T18:38:15.744Z,8.80
2017-04-27T18:40:43.588Z,8.70
2017-04-27T18:43:12.332Z,8.60
2017-04-27T18:45:42.279Z,8.60
2017-04-27T18:48:12.526Z,8.60
2017-04-27T18:50:41.032Z,8.50
2017-04-27T18:53:09.959Z,8.40
2017-04-27T18:55:38.625Z,8.30
2017-04-27T18:58:07.629Z,8.30
2017-04-27T19:00:36.638Z,8.20
2017-04-27T19:03:05.317Z,8.10
2017-04-27T19:05:34.311Z,8.10
2017-04-27T19:08:03.303Z,7.90
2017-04-27T19:10:32.688Z,7.80
2017-04-27T19:13:01.568Z,7.70
2017-04-27T19:15:30.307Z,7.70
2017-04-27T19:18:00.364Z,7.60
2017-04-27T19:20:29.849Z,7.60
2017-04-27T19:22:59.512Z,7.50
2017-04-27T19:25:29.062Z,7.30
2017-04-27T19:27:58.470Z,7.20
2017-04-27T19:30:29.169Z,7.10
2017-04-27T19:32:59.419Z,7.00
2017-04-27T19:35:29.888Z,6.90
2017-04-27T19:37:59.318Z,6.80
2017-04-27T19:40:28.888Z,6.40
2017-04-27T19:42:58.865Z,6.60
2017-04-27T19:45:29.336Z,6.50
2017-04-27T19:47:58.838Z,6.50
2017-04-27T19:50:29.425Z,6.40
2017-04-27T19:52:59.646Z,6.40
2017-04-27T19:55:29.494Z,6.30
2017-04-27T19:58:00.178Z,6.10
2017-04-27T20:00:30.952Z,6.10
2017-04-27T20:03:01.432Z,6.00
2017-04-27T20:05:31.912Z,6.00
2017-04-27T20:08:01.424Z,5.90
2017-04-27T20:10:32.104Z,5.80
2017-04-27T20:13:02.267Z,5.80
2017-04-27T20:15:33.314Z,5.80
2017-04-27T20:18:02.720Z,5.70
2017-04-27T20:20:33.000Z,5.60
2017-04-27T20:23:03.513Z,5.60
2017-04-27T20:25:33.836Z,5.70
2017-04-27T20:28:03.033Z,5.70
2017-04-27T20:30:31.799Z,5.60
2017-04-27T20:33:00.161Z,5.50
2017-04-27T20:35:28.503Z,5.40
2017-04-27T20:37:57.335Z,5.20
2017-04-27T20:40:25.094Z,5.40
2017-04-27T20:42:52.831Z,5.50
2017-04-27T20:45:20.616Z,5.40
2017-04-27T20:47:48.271Z,5.50
2017-04-27T20:50:15.911Z,5.40
2017-04-27T20:52:43.576Z,5.30
2017-04-27T20:55:11.208Z,5.00
2017-04-27T20:57:38.841Z,5.20
2017-04-27T21:00:06.445Z,5.50
2017-04-27T21:02:34.078Z,5.40
2017-04-27T21:05:01.697Z,5.50
2017-04-27T21:07:30.105Z,5.50
2017-04-27T21:09:57.680Z,5.60
2017-04-27T21:12:25.354Z,5.60
2017-04-27T21:14:53.076Z,5.50
2017-04-27T21:17:20.723Z,5.30
2017-04-27T21:19:48.316Z,5.30
2017-04-27T21:22:15.936Z,5.40
2017-04-27T21:24:44.298Z,5.40
2017-04-27T21:27:13.444Z,5.40
2017-04-27T21:29:41.092Z,5.30
2017-04-27T21:32:08.776Z,5.20
2017-04-27T21:34:37.104Z,5.20
2017-04-27T21:37:04.744Z,5.30
2017-04-27T21:39:32.423Z,5.30
2017-04-27T21:42:00.130Z,5.30
2017-04-27T21:44:27.771Z,5.20
2017-04-27T21:46:55.364Z,5.20
2017-04-27T21:49:23.692Z,5.10
2017-04-27T21:51:51.313Z,5.20
2017-04-27T21:54:18.876Z,5.20
2017-04-27T21:56:46.569Z,5.30
2017-04-27T21:59:14.199Z,5.40
2017-04-27T22:01:42.816Z,5.20
2017-04-27T22:04:10.493Z,5.10
2017-04-27T22:06:38.120Z,5.10
2017-04-27T22:09:05.716Z,5.30
2017-04-27T22:11:34.132Z,5.30
2017-04-27T22:14:01.773Z,5.40
2017-04-27T22:16:30.001Z,5.30
2017-04-27T22:18:57.625Z,5.30
2017-04-27T22:21:26.004Z,5.30
2017-04-27T22:23:54.376Z,5.20
2017-04-27T22:26:22.003Z,5.30
2017-04-27T22:28:49.603Z,5.40
2017-04-27T22:31:17.224Z,5.70
2017-04-27T22:33:44.841Z,5.90
2017-04-27T22:36:13.576Z,6.00
2017-04-27T22:38:41.181Z,6.10
2017-04-27T22:41:08.781Z,5.90
2017-04-27T22:43:36.329Z,5.80
2017-04-27T22:46:03.876Z,5.70
2017-04-27T22:48:32.199Z,5.50
2017-04-27T22:50:59.861Z,5.30
2017-04-27T22:53:27.488Z,5.10
2017-04-27T22:55:55.095Z,5.00
2017-04-27T22:58:22.748Z,5.10
2017-04-27T23:00:50.364Z,5.10
2017-04-27T23:03:17.949Z,5.10
2017-04-27T23:05:45.564Z,5.20
2017-04-27T23:08:13.188Z,5.20
2017-04-27T23:10:40.798Z,5.10
2017-04-27T23:13:08.456Z,5.10
2017-04-27T23:15:36.096Z,5.20
2017-04-27T23:18:03.764Z,5.30
2017-04-27T23:20:31.382Z,5.20
2017-04-27T23:22:58.965Z,5.10
2017-04-27T23:25:27.368Z,5.00
2017-04-27T23:27:54.977Z,4.90
2017-04-27T23:30:23.335Z,4.70
2017-04-27T23:32:51.713Z,4.70
2017-04-27T23:35:19.379Z,4.80
2017-04-27T23:37:46.985Z,4.70
2017-04-27T23:40:14.587Z,4.60
2017-04-27T23:42:42.928Z,4.70
2017-04-27T23:45:10.528Z,4.70
2017-04-27T23:47:38.124Z,4.70
2017-04-27T23:50:05.748Z,4.70
2017-04-27T23:52:33.396Z,4.80
2017-04-27T23:55:00.996Z,4.80
2017-04-27T23:57:28.603Z,4.90
2017-04-27T23:59:56.179Z,5.00
